Time;durP1;ratioP1;P1;durP2;ratioP2;P2;SDS_P1;SDS_P2;PMS_P1;PMS_P2;Temp;Humidity;BMP_temperature;BMP_pressure;BME280_temperature;BME280_humidity;BME280_pressure;Samples;Min_cycle;Max_cycle;Signal;HPM_P1;HPM_P2
2022/01/08 00:06:48;;;;;;;0.20;0.10;;;4.60;99.90;;;;;;25591003;23;20250;-73
2022/01/08 00:16:53;;;;;;;0.20;0.10;;;4.00;99.90;;;;;;25562361;23;20280;-71
2022/01/08 00:26:57;;;;;;;0.20;0.07;;;4.40;99.90;;;;;;25589171;23;20177;-73
2022/01/08 00:37:03;;;;;;;0.20;0.10;;;4.30;99.90;;;;;;25588629;23;20328;-72
2022/01/08 00:47:07;;;;;;;0.20;0.10;;;4.40;99.90;;;;;;25588423;23;20178;-72
2022/01/08 00:57:12;;;;;;;0.20;0.10;;;4.80;99.90;;;;;;25586910;23;20206;-71
2022/01/08 01:07:16;;;;;;;0.20;0.10;;;6.10;99.90;;;;;;25589610;23;20201;-72
2022/01/08 01:17:21;;;;;;;0.20;0.10;;;6.90;99.90;;;;;;25562798;23;20632;-72
2022/01/08 01:48:11;;;;;;;0.20;0.00;;;7.80;99.90;;;;;;25562150;23;20197;-70
2022/01/08 01:58:17;;;;;;;0.20;0.10;;;7.80;99.90;;;;;;25586310;23;20281;-72
2022/01/08 02:08:21;;;;;;;0.20;0.10;;;7.60;99.90;;;;;;25588207;23;20243;-74
2022/01/08 02:18:26;;;;;;;0.20;0.10;;;7.70;99.90;;;;;;25587431;23;20720;-73
2022/01/08 02:28:32;;;;;;;0.20;0.10;;;7.70;99.90;;;;;;25587593;23;20249;-73
2022/01/08 02:38:36;;;;;;;0.20;0.07;;;7.40;99.90;;;;;;25585557;23;20273;-74
2022/01/08 02:48:41;;;;;;;0.20;0.10;;;7.30;99.90;;;;;;25586257;23;20547;-73
2022/01/08 02:58:45;;;;;;;0.20;0.10;;;7.30;99.90;;;;;;25559783;23;20229;-73
2022/01/08 03:08:50;;;;;;;0.20;0.00;;;6.60;99.90;;;;;;25559861;23;20205;-67
2022/01/08 03:18:54;;;;;;;0.20;0.10;;;5.90;99.90;;;;;;25559860;23;20207;-67
2022/01/08 03:28:59;;;;;;;0.20;0.10;;;5.30;99.90;;;;;;25593372;23;20186;-75
2022/01/08 03:39:04;;;;;;;0.20;0.00;;;5.60;99.90;;;;;;25592194;23;20551;-73
2022/01/08 03:49:23;;;;;;;0.20;0.00;;;6.70;99.90;;;;;;25565057;23;20221;-74
2022/01/08 03:59:27;;;;;;;0.20;0.10;;;6.90;99.90;;;;;;25591658;23;20277;-67
2022/01/08 04:09:33;;;;;;;1.23;0.63;;;7.10;99.90;;;;;;25589474;23;20249;-66
2022/01/08 04:19:37;;;;;;;0.20;0.10;;;7.20;99.90;;;;;;25590428;23;20273;-67
2022/01/08 04:29:42;;;;;;;0.20;0.10;;;7.30;99.90;;;;;;25590270;23;20313;-67
2022/01/08 04:39:46;;;;;;;0.20;0.10;;;7.30;99.90;;;;;;25589152;23;20268;-67
2022/01/08 04:49:51;;;;;;;0.20;0.10;;;7.60;99.90;;;;;;25587880;23;20380;-66
2022/01/08 04:59:55;;;;;;;0.20;0.00;;;7.60;99.90;;;;;;25589411;23;20197;-67
2022/01/08 05:10:00;;;;;;;0.20;0.10;;;7.50;99.90;;;;;;25588593;23;20253;-67
2022/01/08 05:20:06;;;;;;;0.20;0.10;;;7.40;99.90;;;;;;25561645;23;20280;-73
2022/01/08 05:30:13;;;;;;;0.20;0.00;;;7.20;99.90;;;;;;25587767;23;20249;-74
2022/01/08 05:40:17;;;;;;;0.20;0.10;;;7.00;99.90;;;;;;25587283;23;20190;-72
2022/01/08 05:50:22;;;;;;;0.20;0.10;;;7.00;99.90;;;;;;25586459;23;20217;-66
2022/01/08 06:00:26;;;;;;;0.20;0.10;;;6.80;99.90;;;;;;25586485;23;20202;-65
2022/01/08 06:10:31;;;;;;;0.20;0.10;;;6.20;99.90;;;;;;25584376;23;20269;-65
2022/01/08 06:20:35;;;;;;;0.20;0.10;;;6.30;99.90;;;;;;25586192;23;20581;-65
2022/01/08 06:30:40;;;;;;;0.20;0.00;;;6.30;99.90;;;;;;25584924;23;20249;-73
2022/01/08 06:40:44;;;;;;;0.20;0.10;;;6.10;99.90;;;;;;25586254;23;20696;-72
2022/01/08 06:50:49;;;;;;;0.20;0.10;;;6.20;99.90;;;;;;25558005;23;20206;-73
2022/01/08 07:00:53;;;;;;;0.20;0.10;;;5.90;99.90;;;;;;25591088;23;20675;-73
2022/01/08 07:11:00;;;;;;;0.20;0.10;;;6.40;99.90;;;;;;25591854;23;20166;-73
2022/01/08 07:21:03;;;;;;;0.20;0.00;;;7.00;99.90;;;;;;25593512;23;20198;-74
2022/01/08 07:31:09;;;;;;;0.20;0.03;;;7.50;99.90;;;;;;25565283;23;20724;-73
2022/01/08 07:41:13;;;;;;;0.20;0.10;;;7.60;99.90;;;;;;25564803;23;20666;-74
2022/01/08 07:51:18;;;;;;;0.20;0.10;;;7.70;99.90;;;;;;25590051;23;20198;-73
2022/01/08 08:01:22;;;;;;;0.20;0.10;;;7.80;99.90;;;;;;25589066;23;20196;-73
2022/01/08 08:11:28;;;;;;;0.20;0.10;;;7.60;99.90;;;;;;25590495;23;20190;-72
2022/01/08 08:21:32;;;;;;;0.20;0.10;;;7.60;99.90;;;;;;25590159;23;20268;-72
2022/01/08 08:31:37;;;;;;;0.20;0.10;;;7.80;99.90;;;;;;25590322;23;20668;-71
2022/01/08 08:41:44;;;;;;;1.90;0.40;;;7.90;99.90;;;;;;25587708;23;20194;-66
2022/01/08 08:51:50;;;;;;;0.20;0.10;;;8.00;99.90;;;;;;25560993;23;20276;-66
2022/01/08 09:01:55;;;;;;;0.20;0.10;;;8.40;99.90;;;;;;25585181;23;20297;-66
2022/01/08 09:12:01;;;;;;;0.20;0.10;;;8.70;99.90;;;;;;25558780;23;20225;-65
2022/01/08 09:22:05;;;;;;;4.60;4.43;;;9.40;99.90;;;;;;25584273;23;20186;-66
2022/01/08 09:32:10;;;;;;;0.20;0.10;;;9.50;99.90;;;;;;25582596;23;20194;-71
2022/01/08 09:42:17;;;;;;;0.40;0.40;;;9.50;99.90;;;;;;25582967;23;20201;-70
2022/01/08 09:52:23;;;;;;;0.20;0.10;;;9.40;99.90;;;;;;25580767;23;20209;-68
2022/01/08 10:02:27;;;;;;;0.20;0.10;;;9.40;99.90;;;;;;25581026;23;20599;-69
2022/01/08 10:12:51;;;;;;;0.20;0.10;;;9.40;99.90;;;;;;25580210;23;20170;-68
2022/01/08 10:23:00;;;;;;;0.20;0.10;;;9.50;99.90;;;;;;25551739;23;20301;-69
2022/01/08 10:33:05;;;;;;;0.20;0.10;;;9.30;99.90;;;;;;25585662;23;20239;-68
2022/01/08 10:43:24;;;;;;;0.20;0.10;;;9.40;99.90;;;;;;25588781;23;20225;-69
2022/01/08 10:53:54;;;;;;;0.20;0.10;;;9.60;99.90;;;;;;25556583;23;20216;-70
2022/01/08 11:03:58;;;;;;;0.20;0.10;;;10.30;99.90;;;;;;25584517;23;20230;-68
2022/01/08 11:14:07;;;;;;;0.20;0.10;;;10.70;99.90;;;;;;25587694;23;20217;-68
2022/01/08 11:24:11;;;;;;;0.20;0.10;;;11.00;99.90;;;;;;25589256;23;20253;-70
2022/01/08 11:34:17;;;;;;;0.20;0.10;;;10.80;99.90;;;;;;25586944;23;20723;-73
2022/01/08 11:44:21;;;;;;;0.20;0.10;;;10.80;99.90;;;;;;25584725;23;20221;-67
2022/01/08 13:51:09;;;;;;;0.20;0.10;;;14.60;99.90;;;;;;25506610;22;1991614;-72
2022/01/08 14:01:13;;;;;;;0.20;0.00;;;14.60;99.90;;;;;;25587802;23;20568;-72
2022/01/08 14:11:22;;;;;;;0.20;0.10;;;16.20;99.90;;;;;;25586418;23;20194;-68
2022/01/08 14:21:26;;;;;;;0.20;0.10;;;16.40;99.90;;;;;;25583204;23;20197;-69
2022/01/08 14:31:32;;;;;;;0.20;0.10;;;17.10;99.90;;;;;;25580310;23;20242;-67
2022/01/08 14:41:37;;;;;;;0.20;0.10;;;17.30;99.90;;;;;;25580095;23;20206;-65
2022/01/08 14:51:43;;;;;;;0.20;0.10;;;17.80;99.90;;;;;;25575267;23;20197;-64
2022/01/08 15:01:46;;;;;;;0.20;0.10;;;16.00;99.90;;;;;;25575893;23;20217;-65
2022/01/08 15:11:52;;;;;;;0.20;0.03;;;16.20;99.90;;;;;;25577870;23;20289;-65
2022/01/08 15:21:55;;;;;;;0.20;0.10;;;15.50;99.90;;;;;;25576053;23;20194;-73
2022/01/08 15:32:03;;;;;;;0.20;0.10;;;15.10;99.90;;;;;;25576318;23;20187;-71
2022/01/08 15:42:08;;;;;;;0.20;0.10;;;15.80;99.90;;;;;;25576816;23;20698;-63
2022/01/08 15:52:14;;;;;;;0.20;0.10;;;15.90;99.90;;;;;;25550339;23;20261;-66
2022/01/08 16:02:18;;;;;;;0.20;0.20;;;14.20;99.90;;;;;;25549214;23;20273;-70
2022/01/08 16:12:23;;;;;;;0.20;0.10;;;13.30;99.90;;;;;;25569304;23;20554;-65
2022/01/08 16:22:27;;;;;;;0.20;0.10;;;12.70;99.90;;;;;;25567755;23;20249;-69
2022/01/08 16:32:32;;;;;;;0.20;0.10;;;12.40;99.90;;;;;;25576752;23;20249;-66
2022/01/08 16:42:36;;;;;;;0.20;0.10;;;12.20;99.90;;;;;;25576988;23;20225;-65
2022/01/08 16:52:41;;;;;;;0.20;0.10;;;11.50;99.90;;;;;;25582606;23;20221;-68
2022/01/08 17:02:45;;;;;;;0.20;0.10;;;12.30;99.90;;;;;;25583104;23;20630;-69
2022/01/08 17:12:50;;;;;;;0.20;0.10;;;12.40;99.90;;;;;;25561803;23;20182;-72
2022/01/08 17:22:55;;;;;;;0.20;0.10;;;12.40;99.90;;;;;;25566051;23;20276;-74
2022/01/08 17:33:01;;;;;;;0.20;0.10;;;12.30;99.90;;;;;;25589142;23;20636;-64
2022/01/08 17:43:06;;;;;;;0.20;0.10;;;12.10;99.90;;;;;;25585554;23;20489;-66
2022/01/08 17:53:13;;;;;;;0.20;0.10;;;12.20;99.90;;;;;;25583042;23;20272;-65
2022/01/08 18:03:17;;;;;;;0.20;0.10;;;12.00;99.90;;;;;;25581994;23;20269;-68
2022/01/08 18:13:23;;;;;;;0.20;0.10;;;12.00;99.90;;;;;;25555968;23;20221;-67
2022/01/08 18:23:27;;;;;;;0.20;0.10;;;11.80;99.90;;;;;;25578937;23;20192;-67
2022/01/08 18:33:34;;;;;;;0.20;0.10;;;11.40;99.90;;;;;;25571131;23;20190;-67
2022/01/08 18:43:38;;;;;;;0.20;0.10;;;11.10;99.90;;;;;;25548314;23;20476;-67
2022/01/08 18:53:43;;;;;;;0.20;0.10;;;11.00;99.90;;;;;;25579546;23;20194;-66
2022/01/08 19:03:47;;;;;;;0.20;0.10;;;10.80;99.90;;;;;;25578137;23;20265;-65
2022/01/08 19:13:52;;;;;;;0.20;0.10;;;10.70;99.90;;;;;;25554405;23;20201;-73
2022/01/08 19:23:56;;;;;;;0.20;0.10;;;10.70;99.90;;;;;;25553597;23;20280;-66
2022/01/08 19:34:01;;;;;;;0.20;0.10;;;10.80;99.90;;;;;;25576979;23;20268;-67
2022/01/08 19:44:06;;;;;;;0.20;0.10;;;10.70;99.90;;;;;;25577874;23;20284;-73
2022/01/08 19:54:12;;;;;;;0.20;0.10;;;10.60;99.90;;;;;;25552733;23;20222;-73
2022/01/08 20:04:16;;;;;;;0.20;0.10;;;10.50;99.90;;;;;;25572683;23;20553;-73
2022/01/08 20:14:22;;;;;;;0.20;0.10;;;10.40;99.90;;;;;;25574779;23;20245;-71
2022/01/08 20:24:26;;;;;;;0.20;0.10;;;10.20;99.90;;;;;;25583399;23;20186;-73
2022/01/08 20:34:31;;;;;;;0.20;0.10;;;10.20;99.90;;;;;;25557714;23;20177;-67
2022/01/08 20:44:40;;;;;;;0.20;0.10;;;10.20;99.90;;;;;;25556043;23;20525;-67
2022/01/08 20:54:45;;;;;;;0.20;0.10;;;9.60;99.90;;;;;;25582074;23;20221;-66
2022/01/08 21:04:49;;;;;;;0.20;0.10;;;9.20;99.90;;;;;;25556103;23;20572;-65
2022/01/08 21:14:54;;;;;;;0.20;0.03;;;9.10;99.90;;;;;;25555624;23;20174;-73
2022/01/08 21:24:58;;;;;;;0.20;0.10;;;9.00;99.90;;;;;;25554709;23;20232;-73
2022/01/08 21:35:04;;;;;;;0.20;0.10;;;9.50;99.90;;;;;;25582675;23;20258;-75
2022/01/08 21:45:14;;;;;;;0.20;0.10;;;9.60;99.90;;;;;;25580440;23;20257;-76
2022/01/08 21:55:20;;;;;;;0.20;0.10;;;10.00;99.90;;;;;;25560737;23;20285;-74
2022/01/08 22:05:24;;;;;;;0.20;0.10;;;10.20;99.90;;;;;;25587193;23;20190;-74
2022/01/08 22:15:29;;;;;;;0.20;0.10;;;10.00;99.90;;;;;;25586910;23;20173;-73
2022/01/08 22:25:33;;;;;;;0.20;0.10;;;10.10;99.90;;;;;;25558839;23;20197;-66
2022/01/08 22:35:38;;;;;;;0.20;0.00;;;9.60;99.90;;;;;;25582356;23;20205;-65
2022/01/08 22:45:43;;;;;;;0.20;0.10;;;9.80;99.90;;;;;;25581593;23;20257;-65
2022/01/08 22:55:49;;;;;;;0.37;0.37;;;9.00;99.90;;;;;;25582883;23;20186;-66
2022/01/08 23:05:58;;;;;;;0.20;0.10;;;9.40;99.90;;;;;;25556672;23;20218;-65
2022/01/08 23:16:08;;;;;;;0.20;0.10;;;9.80;99.90;;;;;;25582179;23;20174;-66
2022/01/08 23:26:12;;;;;;;0.20;0.10;;;9.80;99.90;;;;;;25556651;23;20225;-66
2022/01/08 23:36:17;;;;;;;0.20;0.10;;;9.50;99.90;;;;;;25579760;23;20218;-65
2022/01/08 23:46:21;;;;;;;0.20;0.10;;;9.00;99.90;;;;;;25549720;23;20221;-64
2022/01/08 23:56:26;;;;;;;0.20;0.10;;;8.70;99.90;;;;;;25577225;23;20190;-70
